IE-0003 weather

CLOSED Mallow International Airport
Mallow, County Cork, Ireland

Public forecast

Using degrees Celsius for public forecast. Weather courtesy of forecast.io.

Closest aviation weather report (METAR) to Mallow International Airport

Closest report is Cork Airport, 18.9 nm (35.0 km) SSE. Retrieved 2020/05/28 18:30 UTC (11 minutes ago):

EICK 281830Z 14014KT CAVOK 17/12 Q1027 NOSIG

Closest aviation forecast (TAF) to Mallow International Airport

Closest forecast is Cork Airport, 18.9 nm (35.0 km) SSE. Retrieved 2020/05/28 18:11 UTC (30 minutes ago):

TAF EICK 281700Z 2818/2918 13013KT 9999 FEW035 PROB30 TEMPO 2910/2916 13014G25KT